createdAt,value
2023-05-25T00:00:28.240Z,12.38
2023-05-25T00:03:32.182Z,12.30
2023-05-25T00:06:13.319Z,12.24
2023-05-25T00:08:58.296Z,12.19
2023-05-25T00:11:35.063Z,12.10
2023-05-25T00:14:26.984Z,12.11
2023-05-25T00:17:06.434Z,12.07
2023-05-25T00:19:45.245Z,12.03
2023-05-25T00:22:29.285Z,12.02
2023-05-25T00:25:11.599Z,11.99
2023-05-25T00:28:06.594Z,11.95
2023-05-25T00:30:46.277Z,11.90
2023-05-25T00:33:32.741Z,11.86
2023-05-25T00:36:10.540Z,11.81
2023-05-25T00:39:01.237Z,11.76
2023-05-25T00:41:36.887Z,11.71
2023-05-25T00:44:25.853Z,11.66
2023-05-25T00:47:11.962Z,11.60
2023-05-25T00:50:05.504Z,11.54
2023-05-25T00:52:59.484Z,11.47
2023-05-25T00:55:39.125Z,11.40
2023-05-25T00:58:19.897Z,11.34
2023-05-25T01:01:00.149Z,11.31
2023-05-25T01:03:45.987Z,11.26
2023-05-25T01:06:37.142Z,11.23
2023-05-25T01:09:28.252Z,11.18
2023-05-25T01:12:06.251Z,11.14
2023-05-25T01:14:48.796Z,11.11
2023-05-25T01:17:29.882Z,11.08
2023-05-25T01:20:18.537Z,11.00
2023-05-25T01:23:17.796Z,10.99
2023-05-25T01:26:02.866Z,10.97
2023-05-25T01:28:52.031Z,10.95
2023-05-25T01:31:39.788Z,10.92
2023-05-25T01:34:31.784Z,10.90
2023-05-25T01:37:18.211Z,10.87
2023-05-25T01:40:01.916Z,10.85
2023-05-25T01:42:47.299Z,10.84
2023-05-25T01:45:39.356Z,10.83
2023-05-25T01:48:43.853Z,10.81
2023-05-25T01:52:16.687Z,10.82
2023-05-25T01:55:06.552Z,10.82
2023-05-25T01:58:02.955Z,10.83
2023-05-25T02:00:50.218Z,10.81
2023-05-25T02:03:40.461Z,10.81
2023-05-25T02:06:32.184Z,10.79
2023-05-25T02:09:18.892Z,10.77
2023-05-25T02:12:10.615Z,10.76
2023-05-25T02:15:12.185Z,10.77
2023-05-25T02:18:05.972Z,10.79
2023-05-25T02:20:53.577Z,10.84
2023-05-25T02:23:33.726Z,10.90
2023-05-25T02:26:17.064Z,10.96
2023-05-25T02:29:00.384Z,11.04
2023-05-25T02:31:43.632Z,11.11
2023-05-25T02:34:23.351Z,11.18
2023-05-25T02:37:05.143Z,11.23
2023-05-25T02:39:54.000Z,11.38
2023-05-25T02:42:36.301Z,11.51
2023-05-25T02:45:19.023Z,11.62
2023-05-25T02:47:55.043Z,11.70
2023-05-25T02:50:35.852Z,11.79
2023-05-25T02:53:18.553Z,11.89
2023-05-25T02:55:53.483Z,11.99
2023-05-25T02:58:29.332Z,12.08
2023-05-25T03:01:32.241Z,12.14
2023-05-25T03:04:22.203Z,12.19
2023-05-25T03:06:53.960Z,12.23
2023-05-25T03:09:33.802Z,12.26
2023-05-25T03:12:13.138Z,12.32
2023-05-25T03:14:54.756Z,12.34
2023-05-25T03:17:32.949Z,12.32
2023-05-25T03:20:07.772Z,12.38
2023-05-25T03:22:44.229Z,12.43
2023-05-25T03:25:15.825Z,12.50
2023-05-25T03:27:54.522Z,12.56
2023-05-25T03:30:30.759Z,12.60
2023-05-25T03:33:04.984Z,12.63
2023-05-25T03:35:43.295Z,12.69
2023-05-25T03:38:17.603Z,12.79
2023-05-25T03:40:55.312Z,12.87
2023-05-25T03:43:33.552Z,12.95
2023-05-25T03:46:08.176Z,12.99
2023-05-25T03:48:50.645Z,13.03
2023-05-25T03:51:24.988Z,13.06
2023-05-25T03:53:56.403Z,13.09
2023-05-25T03:56:27.544Z,13.13
2023-05-25T03:59:03.923Z,13.16
2023-05-25T04:01:38.534Z,13.16
2023-05-25T04:04:12.704Z,13.19
2023-05-25T04:06:49.199Z,13.21
2023-05-25T04:09:33.048Z,13.22
2023-05-25T04:12:10.540Z,13.21
2023-05-25T04:14:46.390Z,13.20
2023-05-25T04:17:19.279Z,13.16
2023-05-25T04:19:50.842Z,13.15
2023-05-25T04:22:25.351Z,13.15
2023-05-25T04:24:54.280Z,13.14
2023-05-25T04:27:23.846Z,13.12
2023-05-25T04:29:54.592Z,13.11
2023-05-25T04:32:46.860Z,13.10
2023-05-25T04:35:31.897Z,13.09
2023-05-25T04:38:03.162Z,13.10
2023-05-25T04:40:33.557Z,13.13
2023-05-25T04:43:03.666Z,13.14
2023-05-25T04:45:33.637Z,13.16
2023-05-25T04:48:04.029Z,13.16
2023-05-25T04:50:35.397Z,13.19
2023-05-25T04:53:04.342Z,13.21
2023-05-25T04:55:45.871Z,13.23
2023-05-25T04:58:18.449Z,13.26
2023-05-25T05:00:47.500Z,13.30
2023-05-25T05:03:16.786Z,13.36
2023-05-25T05:05:49.176Z,13.43
2023-05-25T05:08:26.201Z,13.50
2023-05-25T05:10:55.031Z,13.57
2023-05-25T05:13:25.359Z,13.65
2023-05-25T05:15:57.321Z,13.71
2023-05-25T05:18:26.311Z,13.77
2023-05-25T05:20:57.757Z,13.83
2023-05-25T05:23:28.193Z,13.88
2023-05-25T05:25:57.273Z,13.95
2023-05-25T05:28:27.703Z,14.03
2023-05-25T05:30:56.651Z,14.13
2023-05-25T05:33:26.728Z,14.17
2023-05-25T05:35:55.698Z,14.31
2023-05-25T05:38:26.121Z,14.42
2023-05-25T05:40:54.919Z,14.53
2023-05-25T05:43:24.927Z,14.63
2023-05-25T05:45:54.660Z,14.71
2023-05-25T05:48:23.460Z,14.83
2023-05-25T05:50:52.718Z,14.94
2023-05-25T05:53:22.015Z,15.04
2023-05-25T05:55:56.073Z,15.09
2023-05-25T05:58:29.573Z,15.24
2023-05-25T06:01:00.462Z,15.37
2023-05-25T06:03:29.272Z,15.50
2023-05-25T06:05:57.940Z,15.63
2023-05-25T06:08:27.744Z,15.75
2023-05-25T06:10:56.427Z,15.89
2023-05-25T06:13:25.355Z,16.02
2023-05-25T06:15:53.801Z,16.16
2023-05-25T06:18:24.781Z,16.31
2023-05-25T06:20:53.723Z,16.44
2023-05-25T06:23:22.207Z,16.57
2023-05-25T06:25:52.835Z,16.69
2023-05-25T06:28:21.316Z,16.81
2023-05-25T06:30:50.917Z,16.93
2023-05-25T06:33:19.393Z,17.01
2023-05-25T06:35:48.038Z,17.10
2023-05-25T06:38:16.879Z,17.22
2023-05-25T06:40:45.276Z,17.37
2023-05-25T06:43:13.618Z,17.46
2023-05-25T06:46:09.790Z,17.52
2023-05-25T06:48:39.675Z,17.63
2023-05-25T06:51:08.035Z,17.72
2023-05-25T06:53:36.662Z,17.84
2023-05-25T06:56:05.109Z,17.97
2023-05-25T06:58:33.482Z,18.11
2023-05-25T07:01:01.995Z,18.24
2023-05-25T07:03:30.537Z,18.37
2023-05-25T07:05:58.814Z,18.48
2023-05-25T07:08:27.405Z,18.62
2023-05-25T07:10:56.194Z,18.77
2023-05-25T07:13:24.578Z,18.91
2023-05-25T07:15:53.073Z,18.96
2023-05-25T07:18:21.722Z,19.07
2023-05-25T07:20:50.002Z,19.20
2023-05-25T07:23:18.378Z,19.29
2023-05-25T07:25:47.167Z,19.31
2023-05-25T07:28:16.276Z,19.31
2023-05-25T07:30:44.740Z,19.27
2023-05-25T07:33:13.138Z,19.00
2023-05-25T07:35:42.012Z,18.69
2023-05-25T07:38:10.894Z,18.37
2023-05-25T07:40:39.272Z,18.18
2023-05-25T07:43:08.482Z,18.01
2023-05-25T07:45:37.060Z,17.89
2023-05-25T07:48:07.626Z,17.83
2023-05-25T07:50:36.260Z,17.79
2023-05-25T07:53:04.839Z,17.79
2023-05-25T07:55:33.116Z,17.78
2023-05-25T07:58:01.593Z,17.74
2023-05-25T08:00:30.379Z,17.77
2023-05-25T08:02:59.149Z,17.84
2023-05-25T08:05:27.954Z,17.92
2023-05-25T08:07:56.640Z,18.02
2023-05-25T08:10:31.497Z,18.11
2023-05-25T08:13:00.147Z,18.23
2023-05-25T08:15:28.533Z,18.30
2023-05-25T08:17:57.016Z,18.39
2023-05-25T08:20:26.480Z,18.52
2023-05-25T08:22:54.896Z,18.59
2023-05-25T08:25:23.268Z,18.58
2023-05-25T08:27:51.532Z,18.48
2023-05-25T08:30:19.918Z,18.35
2023-05-25T08:32:48.564Z,18.20
2023-05-25T08:35:17.792Z,18.00
2023-05-25T08:37:46.995Z,17.89
2023-05-25T08:40:17.232Z,17.82
2023-05-25T08:42:46.821Z,17.81
2023-05-25T08:45:26.895Z,17.83
2023-05-25T08:48:02.134Z,17.98
2023-05-25T08:50:31.416Z,18.16
2023-05-25T08:53:02.033Z,18.38
2023-05-25T08:55:32.660Z,18.56
2023-05-25T08:58:11.464Z,18.64
2023-05-25T09:00:43.921Z,18.71
2023-05-25T09:03:18.310Z,18.81
2023-05-25T09:05:47.889Z,18.98
2023-05-25T09:08:17.907Z,19.19
2023-05-25T09:10:46.281Z,19.40
2023-05-25T09:13:22.054Z,19.55
2023-05-25T09:15:52.423Z,19.62
2023-05-25T09:18:21.618Z,19.62
2023-05-25T09:20:50.267Z,19.57
2023-05-25T09:23:19.433Z,19.46
2023-05-25T09:25:50.983Z,19.42
2023-05-25T09:30:52.450Z,19.35
2023-05-25T09:33:21.322Z,19.28
2023-05-25T09:35:49.758Z,19.19
2023-05-25T09:38:18.430Z,19.22
2023-05-25T09:40:47.745Z,19.30
2023-05-25T09:43:28.324Z,19.43
2023-05-25T09:46:05.709Z,19.59
2023-05-25T09:48:34.760Z,19.70
2023-05-25T09:51:03.320Z,19.70
2023-05-25T09:53:32.415Z,19.65
2023-05-25T09:56:02.596Z,19.64
2023-05-25T09:58:32.341Z,19.61
2023-05-25T10:01:01.132Z,19.54
2023-05-25T10:03:29.611Z,19.46
2023-05-25T10:05:58.113Z,19.46
2023-05-25T10:08:29.123Z,19.48
2023-05-25T10:10:57.710Z,19.53
2023-05-25T10:13:27.627Z,19.62
2023-05-25T10:15:55.927Z,19.82
2023-05-25T10:18:27.190Z,20.02
2023-05-25T10:21:03.180Z,20.19
2023-05-25T10:23:38.202Z,20.34
2023-05-25T10:26:06.826Z,20.43
2023-05-25T10:28:38.420Z,20.59
2023-05-25T10:31:07.702Z,20.76
2023-05-25T10:33:36.185Z,20.82
2023-05-25T10:36:10.811Z,20.88
2023-05-25T10:38:40.789Z,20.97
2023-05-25T10:41:10.031Z,21.15
2023-05-25T10:43:40.105Z,21.40
2023-05-25T10:46:09.042Z,21.54
2023-05-25T10:48:45.496Z,21.65
2023-05-25T10:51:14.643Z,21.82
2023-05-25T10:53:47.226Z,21.99
2023-05-25T10:56:15.595Z,22.13
2023-05-25T10:58:47.558Z,22.27
2023-05-25T11:01:16.706Z,22.40
2023-05-25T11:03:45.556Z,22.51
2023-05-25T11:06:15.970Z,22.66
2023-05-25T11:09:01.346Z,22.89
2023-05-25T11:11:45.793Z,23.15
2023-05-25T11:14:42.566Z,23.31
2023-05-25T11:17:15.341Z,23.39
2023-05-25T11:19:47.928Z,23.44
2023-05-25T11:22:40.375Z,23.49
2023-05-25T11:25:40.671Z,23.51
2023-05-25T11:28:11.910Z,23.48
2023-05-25T11:30:42.195Z,23.43
2023-05-25T11:33:11.417Z,23.38
2023-05-25T11:35:40.410Z,23.26
2023-05-25T11:38:08.891Z,23.16
2023-05-25T11:40:39.291Z,23.12
2023-05-25T11:43:08.923Z,23.17
2023-05-25T11:45:38.572Z,23.31
2023-05-25T11:48:07.151Z,23.50
2023-05-25T11:50:36.102Z,23.60
2023-05-25T11:53:07.554Z,23.79
2023-05-25T11:55:36.550Z,24.88
2023-05-25T11:58:04.824Z,26.28
2023-05-25T12:00:33.548Z,27.54
2023-05-25T12:03:02.570Z,28.58
2023-05-25T12:05:38.846Z,29.51
2023-05-25T12:08:07.233Z,30.30
2023-05-25T12:10:50.313Z,31.10
2023-05-25T12:13:18.960Z,31.98
2023-05-25T12:15:47.616Z,32.63
2023-05-25T12:18:16.100Z,32.52
2023-05-25T12:20:44.847Z,31.82
2023-05-25T12:23:13.680Z,30.99
2023-05-25T12:25:50.457Z,30.34
2023-05-25T12:28:19.740Z,29.97
2023-05-25T12:30:48.085Z,29.69
2023-05-25T12:33:16.772Z,29.36
2023-05-25T12:35:47.623Z,29.28
2023-05-25T12:38:18.817Z,29.62
2023-05-25T12:40:47.384Z,30.11
2023-05-25T12:43:17.742Z,30.58
2023-05-25T12:45:46.374Z,30.98
2023-05-25T12:48:14.837Z,31.38
2023-05-25T12:50:59.016Z,31.81
2023-05-25T12:53:29.244Z,32.19
2023-05-25T12:56:04.414Z,32.46
2023-05-25T12:58:32.759Z,32.57
2023-05-25T13:01:01.219Z,32.80
2023-05-25T13:03:29.482Z,33.09
2023-05-25T13:06:02.734Z,33.18
2023-05-25T13:08:31.357Z,33.31
2023-05-25T13:11:00.350Z,33.58
2023-05-25T13:13:28.632Z,33.68
2023-05-25T13:15:58.511Z,33.82
2023-05-25T13:18:27.020Z,34.04
2023-05-25T13:20:56.795Z,34.16
2023-05-25T13:23:25.829Z,34.32
2023-05-25T13:25:54.204Z,34.65
2023-05-25T13:28:22.888Z,34.78
2023-05-25T13:30:51.156Z,34.66
2023-05-25T13:33:19.652Z,34.74
2023-05-25T13:36:08.138Z,34.88
2023-05-25T13:38:37.694Z,35.06
2023-05-25T13:41:05.966Z,35.23
2023-05-25T13:43:34.243Z,35.36
2023-05-25T13:46:02.537Z,35.38
2023-05-25T13:48:30.869Z,35.51
2023-05-25T13:51:00.193Z,35.66
2023-05-25T13:53:28.567Z,35.79
2023-05-25T13:55:56.944Z,35.70
2023-05-25T13:58:25.424Z,34.86
2023-05-25T14:00:53.929Z,33.86
2023-05-25T14:03:22.745Z,33.00
2023-05-25T14:05:52.907Z,32.52
2023-05-25T14:08:21.199Z,32.55
2023-05-25T14:10:49.460Z,32.80
2023-05-25T14:13:17.990Z,33.03
2023-05-25T14:15:46.845Z,33.05
2023-05-25T14:18:16.055Z,33.25
2023-05-25T14:20:44.408Z,33.66
2023-05-25T14:23:15.163Z,33.95
2023-05-25T14:25:44.717Z,34.24
2023-05-25T14:28:13.284Z,34.69
2023-05-25T14:30:41.699Z,35.17
2023-05-25T14:33:14.365Z,35.36
2023-05-25T14:35:43.275Z,34.91
2023-05-25T14:38:11.906Z,34.07
2023-05-25T14:40:40.332Z,33.01
2023-05-25T14:43:08.707Z,32.12
2023-05-25T14:45:36.973Z,31.22
2023-05-25T14:48:15.998Z,30.41
2023-05-25T14:50:45.710Z,30.24
2023-05-25T14:53:14.095Z,30.55
2023-05-25T14:55:42.723Z,31.11
2023-05-25T14:58:11.456Z,31.71
2023-05-25T15:00:39.734Z,32.32
2023-05-25T15:03:08.830Z,32.82
2023-05-25T15:05:37.404Z,33.24
2023-05-25T15:08:05.711Z,33.60
2023-05-25T15:10:34.061Z,33.92
2023-05-25T15:13:02.535Z,34.03
2023-05-25T15:15:31.125Z,33.88
2023-05-25T15:17:59.559Z,33.89
2023-05-25T15:20:27.844Z,34.07
2023-05-25T15:22:56.252Z,34.01
2023-05-25T15:25:35.116Z,33.34
2023-05-25T15:28:04.473Z,32.46
2023-05-25T15:30:34.710Z,32.08
2023-05-25T15:33:03.555Z,32.05
2023-05-25T15:35:32.665Z,32.18
2023-05-25T15:38:01.879Z,32.37
2023-05-25T15:40:30.380Z,32.54
2023-05-25T15:42:58.631Z,32.64
2023-05-25T15:45:27.031Z,32.52
2023-05-25T15:47:55.631Z,32.02
2023-05-25T15:50:23.970Z,31.78
2023-05-25T15:52:52.448Z,31.83
2023-05-25T15:55:21.030Z,31.91
2023-05-25T15:57:49.412Z,31.84
2023-05-25T16:00:18.305Z,31.68
2023-05-25T16:02:46.649Z,31.44
2023-05-25T16:05:15.152Z,31.18
2023-05-25T16:07:43.635Z,30.95
2023-05-25T16:10:11.905Z,30.57
2023-05-25T16:12:40.127Z,30.34
2023-05-25T16:15:09.186Z,30.27
2023-05-25T16:17:37.454Z,30.29
2023-05-25T16:20:07.065Z,30.33
2023-05-25T16:22:35.431Z,30.25
2023-05-25T16:25:03.711Z,30.16
2023-05-25T16:27:32.078Z,30.06
2023-05-25T16:30:00.468Z,29.87
2023-05-25T16:32:29.708Z,29.59
2023-05-25T16:34:58.034Z,29.26
2023-05-25T16:37:26.305Z,28.81
2023-05-25T16:39:54.696Z,28.32
2023-05-25T16:42:25.307Z,27.87
2023-05-25T16:44:53.584Z,27.40
2023-05-25T16:47:21.967Z,26.91
2023-05-25T16:49:50.339Z,26.43
2023-05-25T16:52:18.649Z,25.99
2023-05-25T16:54:46.889Z,25.56
2023-05-25T16:57:15.162Z,25.16
2023-05-25T16:59:43.542Z,24.80
2023-05-25T17:02:11.818Z,24.48
2023-05-25T17:04:40.092Z,24.18
2023-05-25T17:07:08.576Z,23.93
2023-05-25T17:09:36.946Z,23.72
2023-05-25T17:12:06.755Z,23.52
2023-05-25T17:14:35.033Z,23.30
2023-05-25T17:17:04.547Z,23.10
2023-05-25T17:19:32.867Z,22.91
2023-05-25T17:22:01.185Z,22.74
2023-05-25T17:24:29.599Z,22.58
2023-05-25T17:26:58.056Z,22.43
2023-05-25T17:29:26.318Z,22.27
2023-05-25T17:31:54.928Z,22.10
2023-05-25T17:34:23.588Z,21.94
2023-05-25T17:36:51.862Z,21.80
2023-05-25T17:39:20.341Z,21.68
2023-05-25T17:41:50.360Z,21.56
2023-05-25T17:44:18.738Z,21.42
2023-05-25T17:46:47.025Z,21.28
2023-05-25T17:49:15.284Z,21.12
2023-05-25T17:51:43.563Z,20.94
2023-05-25T17:54:15.723Z,20.76
2023-05-25T17:56:44.664Z,20.55
2023-05-25T17:59:13.003Z,20.35
2023-05-25T18:01:42.108Z,20.16
2023-05-25T18:04:10.814Z,19.96
2023-05-25T18:06:39.452Z,19.78
2023-05-25T18:09:07.829Z,19.59
2023-05-25T18:11:36.820Z,19.40
2023-05-25T18:14:05.403Z,19.20
2023-05-25T18:16:39.619Z,18.99
2023-05-25T18:19:09.651Z,18.78
2023-05-25T18:21:38.823Z,18.63
2023-05-25T18:24:08.643Z,18.73
2023-05-25T18:26:36.911Z,18.85
2023-05-25T18:29:05.300Z,18.93
2023-05-25T18:31:34.022Z,18.98
2023-05-25T18:34:02.554Z,19.00
2023-05-25T18:36:31.241Z,18.98
2023-05-25T18:38:59.513Z,18.98
2023-05-25T18:41:27.798Z,18.98
2023-05-25T18:43:56.173Z,18.95
2023-05-25T18:46:25.855Z,18.92
2023-05-25T18:48:54.258Z,18.91
2023-05-25T18:51:25.932Z,18.91
2023-05-25T18:53:55.033Z,18.92
2023-05-25T18:56:23.685Z,18.89
2023-05-25T18:58:54.940Z,18.86
2023-05-25T19:01:26.892Z,18.81
2023-05-25T19:03:58.105Z,18.74
2023-05-25T19:06:27.643Z,18.68
2023-05-25T19:08:56.013Z,18.63
2023-05-25T19:11:24.592Z,18.54
2023-05-25T19:13:52.891Z,18.44
2023-05-25T19:16:21.264Z,18.34
2023-05-25T19:18:49.828Z,18.24
2023-05-25T19:21:18.204Z,18.15
2023-05-25T19:23:46.692Z,18.05
2023-05-25T19:26:15.175Z,17.95
2023-05-25T19:28:46.199Z,17.83
2023-05-25T19:31:14.607Z,17.72
2023-05-25T19:33:43.265Z,17.63
2023-05-25T19:36:11.994Z,17.52
2023-05-25T19:38:42.223Z,17.42
2023-05-25T19:41:11.076Z,17.32
2023-05-25T19:43:39.537Z,17.23
2023-05-25T19:46:08.047Z,17.13
2023-05-25T19:48:36.750Z,17.04
2023-05-25T19:51:05.181Z,16.96
2023-05-25T19:53:33.687Z,16.88
2023-05-25T19:56:03.570Z,16.78
2023-05-25T19:58:35.276Z,16.70
2023-05-25T20:01:03.860Z,16.62
2023-05-25T20:03:32.961Z,16.55
2023-05-25T20:06:01.792Z,16.48
2023-05-25T20:08:33.039Z,16.41
2023-05-25T20:11:01.923Z,16.34
2023-05-25T20:13:30.914Z,16.27
2023-05-25T20:15:59.427Z,16.20
2023-05-25T20:18:28.386Z,16.14
2023-05-25T20:20:57.177Z,16.08
2023-05-25T20:23:28.218Z,16.01
2023-05-25T20:25:56.897Z,15.95
2023-05-25T20:28:28.344Z,15.89
2023-05-25T20:30:59.177Z,15.83
2023-05-25T20:33:27.861Z,15.78
2023-05-25T20:35:59.212Z,15.75
2023-05-25T20:38:27.582Z,15.71
2023-05-25T20:40:56.064Z,15.68
2023-05-25T20:43:24.552Z,15.64
2023-05-25T20:45:56.364Z,15.60
2023-05-25T20:48:27.444Z,15.55
2023-05-25T20:50:56.130Z,15.50
2023-05-25T20:53:27.477Z,15.44
2023-05-25T20:55:57.936Z,15.39
2023-05-25T20:58:28.534Z,15.33
2023-05-25T21:00:59.579Z,15.29
2023-05-25T21:03:31.100Z,15.25
2023-05-25T21:06:02.573Z,15.21
2023-05-25T21:08:36.437Z,15.16
2023-05-25T21:11:05.165Z,15.13
2023-05-25T21:13:34.054Z,15.10
2023-05-25T21:16:03.167Z,15.10
2023-05-25T21:18:33.879Z,15.14
2023-05-25T21:21:04.829Z,15.17
2023-05-25T21:23:36.265Z,15.18
2023-05-25T21:26:05.054Z,15.17
2023-05-25T21:28:38.866Z,15.17
2023-05-25T21:31:07.795Z,15.17
2023-05-25T21:33:37.756Z,15.19
2023-05-25T21:36:08.036Z,15.24
2023-05-25T21:38:38.608Z,15.31
2023-05-25T21:41:07.191Z,15.36
2023-05-25T21:43:38.124Z,15.42
2023-05-25T21:46:09.694Z,15.46
2023-05-25T21:48:40.821Z,15.50
2023-05-25T21:51:09.617Z,15.55
2023-05-25T21:53:38.200Z,15.57
2023-05-25T21:56:09.130Z,15.58
2023-05-25T21:58:40.164Z,15.55
2023-05-25T22:01:12.132Z,15.51
2023-05-25T22:03:40.974Z,15.50
2023-05-25T22:06:10.011Z,15.48
2023-05-25T22:08:41.353Z,15.46
2023-05-25T22:11:12.190Z,15.47
2023-05-25T22:13:40.685Z,15.43
2023-05-25T22:16:09.248Z,15.42
2023-05-25T22:18:38.674Z,15.43
2023-05-25T22:21:07.356Z,15.43
2023-05-25T22:23:35.924Z,15.43
2023-05-25T22:26:05.424Z,15.42
2023-05-25T22:28:34.006Z,15.41
2023-05-25T22:31:02.723Z,15.40
2023-05-25T22:33:31.370Z,15.39
2023-05-25T22:36:00.176Z,15.36
2023-05-25T22:38:28.735Z,15.35
2023-05-25T22:40:59.469Z,15.34
2023-05-25T22:43:30.102Z,15.33
2023-05-25T22:46:00.963Z,15.33
2023-05-25T22:48:29.412Z,15.34
2023-05-25T22:50:58.521Z,15.33
2023-05-25T22:53:27.195Z,15.34
2023-05-25T22:56:00.909Z,15.33
2023-05-25T22:58:31.830Z,15.32
2023-05-25T23:01:00.412Z,15.32
2023-05-25T23:03:30.378Z,15.34
2023-05-25T23:05:58.906Z,15.34
2023-05-25T23:08:28.113Z,15.33
2023-05-25T23:10:56.687Z,15.33
2023-05-25T23:13:28.032Z,15.32
2023-05-25T23:15:56.621Z,15.30
2023-05-25T23:18:25.196Z,15.26
2023-05-25T23:20:53.690Z,15.24
2023-05-25T23:23:25.227Z,15.24
2023-05-25T23:25:57.709Z,15.21
2023-05-25T23:28:28.864Z,15.18
2023-05-25T23:30:57.525Z,15.11
2023-05-25T23:33:26.217Z,15.08
2023-05-25T23:35:57.873Z,15.02
2023-05-25T23:38:29.207Z,14.96
2023-05-25T23:41:00.772Z,14.90
2023-05-25T23:43:29.455Z,14.85
2023-05-25T23:45:58.368Z,14.79
2023-05-25T23:48:32.963Z,14.78
2023-05-25T23:51:01.954Z,14.75
2023-05-25T23:53:30.842Z,14.73
2023-05-25T23:55:59.422Z,14.72
2023-05-25T23:58:28.108Z,14.74
